Time;durP1;ratioP1;P1;durP2;ratioP2;P2;SDS_P1;SDS_P2;PMS_P1;PMS_P2;Temp;Humidity;BMP_temperature;BMP_pressure;BME280_temperature;BME280_humidity;BME280_pressure;Samples;Min_cycle;Max_cycle;Signal;HPM_P1;HPM_P2
2023/07/05 00:00:49;;;;;;;8.88;3.85;;;16.80;99.90;;;;;;4872679;29;20225;-81
2023/07/05 00:03:15;;;;;;;9.30;4.07;;;16.70;99.90;;;;;;4868045;29;20182;-81
2023/07/05 00:05:41;;;;;;;13.05;4.18;;;16.70;99.90;;;;;;4869114;29;20206;-81
2023/07/05 00:08:07;;;;;;;8.30;4.38;;;16.70;99.90;;;;;;4878031;29;20204;-81
2023/07/05 00:10:35;;;;;;;8.25;4.10;;;16.70;99.90;;;;;;4878984;29;20276;-81
2023/07/05 00:13:01;;;;;;;11.50;4.40;;;16.70;99.90;;;;;;4870598;29;20182;-81
2023/07/05 00:15:28;;;;;;;10.73;3.95;;;16.60;99.90;;;;;;4860371;29;20363;-81
2023/07/05 00:17:54;;;;;;;13.55;4.22;;;16.60;99.90;;;;;;4870369;29;20185;-81
2023/07/05 00:20:20;;;;;;;10.15;4.97;;;16.50;99.90;;;;;;4873989;29;20193;-81
2023/07/05 00:22:46;;;;;;;11.65;4.30;;;16.50;99.90;;;;;;4861120;29;20197;-81
2023/07/05 00:25:12;;;;;;;9.00;4.50;;;16.40;99.90;;;;;;4877234;29;20189;-81
2023/07/05 00:27:37;;;;;;;9.40;4.75;;;16.40;99.90;;;;;;4874593;29;20185;-80
2023/07/05 00:30:04;;;;;;;10.73;4.70;;;16.40;99.90;;;;;;4864567;29;20315;-82
2023/07/05 00:32:31;;;;;;;9.63;4.97;;;16.40;99.90;;;;;;4866454;29;20185;-80
2023/07/05 00:34:57;;;;;;;11.93;5.18;;;16.40;99.90;;;;;;4877721;29;20200;-80
2023/07/05 00:37:23;;;;;;;12.18;5.85;;;16.30;99.90;;;;;;4880998;29;20189;-80
2023/07/05 00:39:48;;;;;;;11.32;5.45;;;16.30;99.90;;;;;;4876611;29;20181;-80
2023/07/05 00:42:14;;;;;;;12.02;5.95;;;16.30;99.90;;;;;;4889988;29;20196;-80
2023/07/05 00:44:40;;;;;;;16.92;6.28;;;16.20;99.90;;;;;;4870796;29;20225;-82
2023/07/05 00:47:25;;;;;;;14.77;6.18;;;16.20;99.90;;;;;;4875351;29;20311;-82
2023/07/05 00:49:53;;;;;;;12.68;5.50;;;16.20;99.90;;;;;;4876021;29;20189;-80
2023/07/05 00:52:18;;;;;;;10.77;5.80;;;16.30;99.90;;;;;;4871708;29;20335;-80
2023/07/05 00:54:50;;;;;;;15.73;5.38;;;16.30;99.90;;;;;;4875344;29;20268;-79
2023/07/05 00:57:21;;;;;;;9.13;5.38;;;16.30;99.90;;;;;;4873374;29;20186;-81
2023/07/05 01:00:01;;;;;;;11.05;5.47;;;16.30;99.90;;;;;;4867376;29;20280;-80
2023/07/05 01:02:27;;;;;;;12.90;5.50;;;16.30;99.90;;;;;;4875424;29;20185;-81
2023/07/05 01:04:53;;;;;;;12.68;5.72;;;16.40;99.90;;;;;;4882157;29;20212;-80
2023/07/05 01:07:19;;;;;;;10.90;5.85;;;16.40;99.90;;;;;;4864324;29;20639;-81
2023/07/05 01:09:48;;;;;;;12.40;5.78;;;16.40;99.90;;;;;;4878481;29;20181;-80
2023/07/05 01:12:35;;;;;;;14.40;6.07;;;16.40;99.90;;;;;;4874428;29;20201;-80
2023/07/05 01:15:12;;;;;;;12.75;6.18;;;16.40;99.90;;;;;;4859999;29;20185;-81
2023/07/05 01:17:48;;;;;;;12.05;6.25;;;16.30;99.90;;;;;;4850338;29;20241;-80
2023/07/05 01:20:33;;;;;;;12.48;5.93;;;16.20;99.90;;;;;;4877781;29;20656;-81
2023/07/05 01:23:14;;;;;;;13.77;6.40;;;16.20;99.90;;;;;;4873113;29;20200;-81
2023/07/05 01:25:48;;;;;;;12.18;5.97;;;16.10;99.90;;;;;;4888087;29;20189;-79
2023/07/05 01:28:37;;;;;;;14.90;6.53;;;16.20;99.90;;;;;;4868185;29;20193;-80
2023/07/05 01:31:40;;;;;;;18.00;7.47;;;16.10;99.90;;;;;;4864065;29;20215;-80
2023/07/05 01:34:23;;;;;;;18.85;7.05;;;16.10;99.90;;;;;;4876401;29;20213;-81
2023/07/05 01:36:49;;;;;;;17.80;7.82;;;16.20;99.90;;;;;;4883891;29;20240;-81
2023/07/05 01:39:15;;;;;;;15.82;7.80;;;16.10;99.90;;;;;;4877109;29;20213;-80
2023/07/05 01:41:41;;;;;;;15.65;7.82;;;16.10;99.90;;;;;;4892293;29;20229;-81
2023/07/05 01:44:08;;;;;;;16.85;7.68;;;16.10;99.90;;;;;;4869241;29;20302;-81
2023/07/05 01:46:45;;;;;;;15.77;7.63;;;16.10;99.90;;;;;;4873550;29;20245;-81
2023/07/05 01:49:25;;;;;;;15.45;8.02;;;16.20;99.90;;;;;;4871860;29;20185;-82
2023/07/05 01:51:58;;;;;;;16.08;8.63;;;16.10;99.90;;;;;;4875209;29;20243;-81
2023/07/05 01:54:37;;;;;;;13.43;8.30;;;16.20;99.90;;;;;;4877004;29;20211;-81
2023/07/05 01:57:13;;;;;;;20.27;9.02;;;16.20;99.90;;;;;;4877521;29;20185;-81
2023/07/05 02:00:10;;;;;;;19.90;9.02;;;16.20;99.90;;;;;;4891105;29;20204;-80
2023/07/05 02:02:45;;;;;;;17.55;9.07;;;16.20;99.90;;;;;;4866674;29;20225;-81
2023/07/05 02:05:13;;;;;;;15.60;8.45;;;16.20;99.90;;;;;;4869127;29;20760;-82
2023/07/05 02:07:39;;;;;;;15.57;9.20;;;16.20;99.90;;;;;;4866117;29;20216;-82
2023/07/05 02:10:06;;;;;;;20.77;9.30;;;16.10;99.90;;;;;;4876250;29;20213;-82
2023/07/05 02:12:32;;;;;;;22.00;10.23;;;16.10;99.90;;;;;;4866573;29;20552;-82
2023/07/05 02:14:58;;;;;;;18.23;9.68;;;16.00;99.90;;;;;;4876636;29;20611;-82
2023/07/05 02:17:23;;;;;;;17.20;9.80;;;16.00;99.90;;;;;;4874306;29;20647;-82
2023/07/05 02:19:50;;;;;;;19.02;10.18;;;16.00;99.90;;;;;;4845767;29;20182;-81
2023/07/05 02:22:16;;;;;;;17.35;9.63;;;15.90;99.90;;;;;;4863194;29;20220;-82
2023/07/05 02:24:42;;;;;;;22.35;10.10;;;15.90;99.90;;;;;;4870393;29;20635;-82
2023/07/05 02:27:08;;;;;;;24.77;10.20;;;15.90;99.90;;;;;;4880623;29;20216;-82
2023/07/05 02:29:34;;;;;;;20.70;10.50;;;15.90;99.90;;;;;;4879583;29;20249;-82
2023/07/05 02:32:00;;;;;;;18.13;10.48;;;15.90;99.90;;;;;;4870035;29;20229;-82
2023/07/05 02:34:27;;;;;;;20.48;10.32;;;15.90;99.90;;;;;;4862894;29;20212;-81
2023/07/05 02:36:53;;;;;;;23.13;11.18;;;15.80;99.90;;;;;;4871230;29;20183;-80
2023/07/05 02:39:19;;;;;;;22.98;10.65;;;15.80;99.90;;;;;;4857090;29;20188;-81
2023/07/05 02:41:45;;;;;;;22.13;11.05;;;15.80;99.90;;;;;;4872389;29;20193;-81
2023/07/05 02:44:11;;;;;;;19.55;10.77;;;15.80;99.90;;;;;;4858486;29;20256;-82
2023/07/05 02:46:38;;;;;;;22.50;11.18;;;15.80;99.90;;;;;;4880416;29;20710;-81
2023/07/05 02:49:04;;;;;;;23.10;11.57;;;15.80;99.90;;;;;;4873616;29;20326;-81
2023/07/05 02:51:32;;;;;;;19.88;11.25;;;15.80;99.90;;;;;;4862838;29;20733;-81
2023/07/05 02:53:57;;;;;;;20.75;11.43;;;15.80;99.90;;;;;;4861493;29;20194;-81
2023/07/05 02:56:24;;;;;;;19.27;11.75;;;15.80;99.90;;;;;;4860933;29;20261;-81
2023/07/05 02:58:50;;;;;;;21.42;11.88;;;15.80;99.90;;;;;;4868670;29;20192;-81
2023/07/05 03:01:16;;;;;;;19.85;12.07;;;15.80;99.90;;;;;;4878024;29;20193;-81
2023/07/05 03:03:42;;;;;;;23.77;13.07;;;15.80;99.90;;;;;;4862408;29;20189;-81
2023/07/05 03:06:08;;;;;;;22.92;12.23;;;15.80;99.90;;;;;;4879180;29;20528;-81
2023/07/05 03:08:33;;;;;;;20.20;12.20;;;15.80;99.90;;;;;;4879262;29;20189;-80
2023/07/05 03:11:00;;;;;;;21.75;11.88;;;15.80;99.90;;;;;;4880148;29;20225;-80
2023/07/05 03:13:30;;;;;;;19.13;12.43;;;15.80;99.90;;;;;;4858904;29;20185;-81
2023/07/05 03:15:57;;;;;;;21.90;12.50;;;15.80;99.90;;;;;;4876264;29;20190;-81
2023/07/05 03:18:23;;;;;;;22.52;12.73;;;15.80;99.90;;;;;;4868316;29;20190;-81
2023/07/05 03:20:49;;;;;;;24.10;13.60;;;15.80;99.90;;;;;;4862638;29;20276;-80
2023/07/05 03:23:16;;;;;;;21.63;13.90;;;15.70;99.90;;;;;;4871066;29;20280;-81
2023/07/05 03:25:56;;;;;;;22.23;14.02;;;15.70;99.90;;;;;;4877148;29;20193;-81
2023/07/05 03:28:25;;;;;;;26.63;15.20;;;15.70;99.90;;;;;;4867345;29;20220;-81
2023/07/05 03:31:08;;;;;;;26.05;15.07;;;15.70;99.90;;;;;;4875658;29;20222;-81
2023/07/05 03:33:34;;;;;;;25.15;16.50;;;15.70;99.90;;;;;;4860185;29;20237;-82
2023/07/05 03:36:03;;;;;;;27.25;16.35;;;15.60;99.90;;;;;;4865718;29;20189;-81
2023/07/05 03:38:30;;;;;;;27.40;17.00;;;15.60;99.90;;;;;;4878563;29;20685;-82
2023/07/05 03:41:04;;;;;;;29.33;16.80;;;15.60;99.90;;;;;;4861313;29;20693;-80
2023/07/05 03:43:35;;;;;;;27.00;17.35;;;15.60;99.90;;;;;;4864733;29;20605;-83
2023/07/05 03:46:02;;;;;;;32.03;17.65;;;15.60;99.90;;;;;;4874958;29;20185;-81
2023/07/05 03:48:30;;;;;;;29.70;19.13;;;15.60;99.90;;;;;;4877655;29;20324;-81
2023/07/05 03:50:58;;;;;;;28.88;19.75;;;15.60;99.90;;;;;;4873259;29;20221;-81
2023/07/05 03:53:24;;;;;;;28.08;19.00;;;15.60;99.90;;;;;;4871001;29;20221;-81
2023/07/05 03:55:50;;;;;;;33.53;20.42;;;15.60;99.90;;;;;;4879329;29;20197;-82
2023/07/05 03:58:16;;;;;;;29.38;19.25;;;15.60;99.90;;;;;;4878838;29;20665;-81
2023/07/05 04:00:42;;;;;;;29.42;19.85;;;15.60;99.90;;;;;;4879275;29;20217;-81
2023/07/05 04:03:08;;;;;;;28.73;18.15;;;15.60;99.90;;;;;;4874697;29;20199;-81
2023/07/05 04:05:34;;;;;;;25.98;18.00;;;15.60;99.90;;;;;;4870662;29;20186;-81
2023/07/05 04:08:00;;;;;;;29.15;19.33;;;15.60;99.90;;;;;;4870237;29;20258;-82
2023/07/05 04:10:26;;;;;;;30.42;18.63;;;15.60;99.90;;;;;;4859362;29;20318;-81
2023/07/05 04:12:52;;;;;;;27.50;18.45;;;15.60;99.90;;;;;;4867830;29;20269;-82
2023/07/05 04:15:19;;;;;;;21.92;14.35;;;15.60;99.90;;;;;;4879015;29;20186;-83
2023/07/05 04:17:45;;;;;;;22.13;12.38;;;15.70;99.90;;;;;;4874112;29;20530;-82
2023/07/05 04:20:11;;;;;;;16.65;11.73;;;15.70;99.90;;;;;;4878702;29;20189;-82
2023/07/05 04:22:40;;;;;;;19.83;11.35;;;15.70;99.90;;;;;;4877169;29;20197;-82
2023/07/05 04:25:09;;;;;;;16.00;10.70;;;15.70;99.90;;;;;;4873271;29;20289;-82
2023/07/05 04:27:35;;;;;;;13.85;10.80;;;15.70;99.90;;;;;;4866676;29;20223;-82
2023/07/05 04:30:03;;;;;;;17.05;11.02;;;15.70;99.90;;;;;;4871618;29;20188;-81
2023/07/05 04:32:29;;;;;;;20.95;11.27;;;15.80;99.90;;;;;;4871276;29;20189;-81
2023/07/05 04:34:55;;;;;;;18.23;11.43;;;15.80;99.90;;;;;;4871148;29;20197;-82
2023/07/05 04:37:21;;;;;;;17.20;10.93;;;15.80;99.90;;;;;;4873096;29;20190;-82
2023/07/05 04:39:47;;;;;;;17.75;11.82;;;15.80;99.90;;;;;;4871992;29;20181;-83
2023/07/05 04:42:13;;;;;;;17.33;12.18;;;15.80;99.90;;;;;;4874714;29;20189;-81
2023/07/05 04:44:39;;;;;;;15.68;11.07;;;15.90;99.90;;;;;;4869639;29;20202;-81
2023/07/05 04:47:05;;;;;;;16.35;11.15;;;15.90;99.90;;;;;;4868773;29;20237;-83
2023/07/05 04:49:31;;;;;;;16.23;10.48;;;15.90;99.90;;;;;;4885773;29;20710;-81
2023/07/05 04:51:56;;;;;;;16.77;10.93;;;15.90;99.90;;;;;;4862134;29;20292;-82
2023/07/05 04:54:22;;;;;;;15.73;10.98;;;16.00;99.90;;;;;;4857795;29;20277;-81
2023/07/05 04:56:48;;;;;;;14.75;10.23;;;16.00;99.90;;;;;;4878823;29;20620;-81
2023/07/05 04:59:14;;;;;;;14.70;10.27;;;16.00;99.90;;;;;;4868822;29;20203;-83
2023/07/05 05:01:40;;;;;;;19.00;10.30;;;16.00;99.90;;;;;;4878668;29;20239;-82
2023/07/05 05:04:06;;;;;;;15.60;10.20;;;16.10;99.90;;;;;;4874315;29;20182;-81
2023/07/05 05:06:32;;;;;;;13.02;8.35;;;16.10;99.90;;;;;;4874964;29;20703;-80
2023/07/05 05:08:58;;;;;;;13.38;8.68;;;16.10;99.90;;;;;;4870353;29;20201;-81
2023/07/05 05:11:26;;;;;;;11.73;8.60;;;16.10;99.90;;;;;;4864496;29;20293;-80
2023/07/05 05:13:52;;;;;;;13.75;7.60;;;16.10;99.90;;;;;;4876710;29;20189;-79
2023/07/05 05:16:18;;;;;;;10.35;6.28;;;16.10;99.90;;;;;;4876126;29;20639;-80
2023/07/05 05:18:44;;;;;;;9.98;6.28;;;16.10;99.90;;;;;;4878836;29;20189;-81
2023/07/05 05:21:10;;;;;;;11.60;5.60;;;16.10;99.90;;;;;;4869884;29;20672;-80
2023/07/05 05:23:36;;;;;;;9.35;5.50;;;16.10;99.90;;;;;;4860582;29;20202;-80
2023/07/05 05:26:03;;;;;;;7.80;5.50;;;16.00;99.90;;;;;;4859781;29;20663;-80
2023/07/05 05:28:30;;;;;;;8.52;5.20;;;16.00;99.90;;;;;;4864515;29;20193;-81
2023/07/05 05:31:07;;;;;;;7.63;5.07;;;16.00;99.90;;;;;;4893434;29;20356;-81
2023/07/05 05:33:33;;;;;;;8.90;4.88;;;16.00;99.90;;;;;;4868778;29;20212;-80
2023/07/05 05:35:59;;;;;;;10.45;5.47;;;15.90;99.90;;;;;;4872224;29;20648;-80
2023/07/05 05:38:25;;;;;;;9.32;5.32;;;15.90;99.90;;;;;;4876663;29;20208;-80
2023/07/05 05:40:51;;;;;;;7.60;5.10;;;15.90;99.90;;;;;;4892658;29;20197;-81
2023/07/05 05:43:18;;;;;;;10.40;5.30;;;15.80;99.90;;;;;;4876360;29;20200;-81
2023/07/05 05:45:44;;;;;;;7.50;5.00;;;15.80;99.90;;;;;;4871059;29;20193;-80
2023/07/05 05:48:10;;;;;;;9.18;5.32;;;15.80;99.90;;;;;;4875930;29;20233;-80
2023/07/05 05:50:35;;;;;;;10.45;4.90;;;15.80;99.90;;;;;;4877753;29;20217;-79
2023/07/05 05:53:02;;;;;;;7.20;5.00;;;15.80;99.90;;;;;;4878867;29;20196;-80
2023/07/05 05:55:28;;;;;;;7.75;5.00;;;15.80;99.90;;;;;;4880263;29;20193;-81
2023/07/05 05:57:54;;;;;;;10.43;5.43;;;15.80;99.90;;;;;;4864916;29;20194;-80
2023/07/05 06:00:21;;;;;;;7.38;5.10;;;15.80;99.90;;;;;;4882230;29;20192;-79
2023/07/05 06:02:47;;;;;;;7.93;5.43;;;15.80;99.90;;;;;;4889061;29;20185;-79
2023/07/05 06:05:13;;;;;;;10.07;5.00;;;15.80;99.90;;;;;;4874299;29;20197;-76
2023/07/05 06:07:39;;;;;;;8.27;5.50;;;15.90;99.90;;;;;;4882107;29;20192;-79
2023/07/05 06:10:06;;;;;;;9.68;5.53;;;15.90;99.90;;;;;;4875561;29;20207;-78
2023/07/05 06:12:32;;;;;;;8.55;5.95;;;15.90;99.90;;;;;;4879448;29;20186;-85
2023/07/05 06:14:58;;;;;;;7.05;5.07;;;16.00;99.90;;;;;;4874379;29;20536;-80
2023/07/05 06:17:23;;;;;;;8.43;4.68;;;16.10;99.90;;;;;;4865344;29;20192;-80
2023/07/05 06:19:49;;;;;;;10.77;4.60;;;16.10;99.90;;;;;;4875258;29;20196;-81
2023/07/05 06:22:15;;;;;;;7.80;5.28;;;16.10;99.90;;;;;;4865005;29;20209;-80
2023/07/05 06:24:43;;;;;;;7.45;4.95;;;16.10;99.90;;;;;;4874388;29;20324;-80
2023/07/05 06:27:09;;;;;;;9.07;4.40;;;16.10;99.90;;;;;;4895758;29;20201;-81
2023/07/05 06:29:34;;;;;;;6.75;4.32;;;16.10;99.90;;;;;;4871392;29;20193;-80
2023/07/05 06:32:00;;;;;;;7.30;4.40;;;16.10;99.90;;;;;;4864769;29;20642;-81
2023/07/05 06:34:26;;;;;;;7.22;4.45;;;16.00;99.90;;;;;;4880869;29;20197;-80
2023/07/05 06:36:52;;;;;;;7.85;4.50;;;16.00;99.90;;;;;;4881859;29;20205;-80
2023/07/05 06:39:18;;;;;;;8.25;4.20;;;15.90;99.90;;;;;;4877033;29;20190;-80
2023/07/05 06:41:44;;;;;;;6.30;3.90;;;15.90;99.90;;;;;;4861970;29;20354;-79
2023/07/05 06:44:12;;;;;;;7.45;4.35;;;15.90;99.90;;;;;;4847374;29;20264;-80
2023/07/05 06:46:38;;;;;;;7.50;4.35;;;15.90;99.90;;;;;;4864762;29;20226;-78
2023/07/05 06:49:03;;;;;;;8.25;4.40;;;15.90;99.90;;;;;;4874885;29;20646;-77
2023/07/05 06:51:29;;;;;;;8.07;4.22;;;16.00;99.90;;;;;;4879930;29;20209;-77
2023/07/05 06:53:55;;;;;;;5.88;4.18;;;16.00;99.90;;;;;;4882558;29;20237;-80
2023/07/05 06:56:21;;;;;;;8.95;4.78;;;16.00;99.90;;;;;;4872543;29;20193;-80
2023/07/05 06:58:47;;;;;;;5.70;4.15;;;16.00;99.90;;;;;;4877297;29;20200;-81
2023/07/05 07:01:13;;;;;;;9.73;4.53;;;16.00;99.90;;;;;;4878711;29;20251;-81
2023/07/05 07:03:39;;;;;;;5.55;4.07;;;16.00;99.90;;;;;;4874976;29;20190;-79
2023/07/05 07:06:05;;;;;;;7.43;4.03;;;16.00;99.90;;;;;;4883160;29;20217;-79
2023/07/05 07:08:38;;;;;;;6.35;4.10;;;16.00;99.90;;;;;;4879698;29;20193;-79
2023/07/05 07:11:06;;;;;;;8.02;4.00;;;16.00;99.90;;;;;;4880572;29;20272;-78
2023/07/05 07:13:32;;;;;;;9.15;4.03;;;16.00;99.90;;;;;;4887045;29;20185;-83
2023/07/05 07:16:04;;;;;;;8.82;4.40;;;16.00;99.90;;;;;;4878777;29;20198;-79
2023/07/05 07:18:30;;;;;;;7.00;4.18;;;16.00;99.90;;;;;;4863960;29;20189;-79
2023/07/05 07:20:59;;;;;;;5.50;3.42;;;16.10;99.90;;;;;;4863504;29;20197;-77
2023/07/05 07:23:25;;;;;;;6.45;4.25;;;16.20;99.90;;;;;;4874686;29;20272;-78
2023/07/05 07:26:05;;;;;;;5.78;4.03;;;16.30;99.90;;;;;;4879453;29;20335;-77
2023/07/05 07:28:30;;;;;;;8.68;4.15;;;16.40;99.90;;;;;;4867284;29;20198;-79
2023/07/05 07:30:57;;;;;;;6.93;3.80;;;16.40;99.90;;;;;;4870922;29;20358;-81
2023/07/05 07:33:24;;;;;;;9.02;3.58;;;16.50;99.90;;;;;;4868073;29;20289;-81
2023/07/05 07:35:50;;;;;;;7.22;3.95;;;16.50;99.90;;;;;;4865004;29;20230;-78
2023/07/05 07:38:17;;;;;;;9.27;3.67;;;16.40;99.90;;;;;;4879001;29;20602;-80
2023/07/05 07:40:43;;;;;;;6.05;3.75;;;16.40;99.90;;;;;;4872806;29;20197;-80
2023/07/05 07:43:08;;;;;;;14.05;3.40;;;16.40;99.90;;;;;;4868778;29;20196;-81
2023/07/05 07:45:34;;;;;;;7.65;3.20;;;16.40;99.90;;;;;;4862025;29;20726;-80
2023/07/05 07:48:00;;;;;;;7.35;3.08;;;16.40;99.90;;;;;;4876247;29;20690;-80
2023/07/05 07:50:26;;;;;;;7.00;3.20;;;16.30;99.90;;;;;;4867777;29;20241;-81
2023/07/05 07:52:53;;;;;;;6.50;3.20;;;16.30;99.90;;;;;;4877838;29;20639;-81
2023/07/05 07:55:19;;;;;;;5.75;3.42;;;16.30;99.90;;;;;;4878495;29;20185;-80
2023/07/05 07:57:45;;;;;;;6.80;3.17;;;16.20;99.90;;;;;;4877562;29;20181;-81
2023/07/05 08:00:11;;;;;;;7.18;3.60;;;16.10;99.90;;;;;;4872594;29;20209;-84
2023/07/05 08:02:40;;;;;;;5.15;3.25;;;16.10;99.90;;;;;;4872093;29;20272;-83
2023/07/05 08:05:16;;;;;;;8.20;3.58;;;15.90;99.90;;;;;;4879511;29;20260;-81
2023/07/05 08:07:42;;;;;;;4.10;2.90;;;15.80;99.90;;;;;;4880032;29;20275;-81
2023/07/05 08:10:08;;;;;;;5.30;2.90;;;15.70;99.90;;;;;;4875370;29;20417;-81
2023/07/05 08:12:34;;;;;;;6.13;2.25;;;15.60;99.90;;;;;;4875997;29;20193;-82
2023/07/05 08:15:01;;;;;;;6.60;2.03;;;15.50;99.90;;;;;;4877863;29;20292;-84
2023/07/05 08:17:28;;;;;;;4.30;1.65;;;15.30;99.90;;;;;;4873749;29;20194;-81
2023/07/05 08:19:54;;;;;;;4.00;1.50;;;15.20;99.90;;;;;;4878993;29;20214;-81
2023/07/05 08:22:19;;;;;;;1.85;1.25;;;15.00;99.90;;;;;;4874138;29;20709;-80
2023/07/05 08:24:45;;;;;;;2.50;1.33;;;14.90;99.90;;;;;;4877812;29;20208;-83
2023/07/05 08:27:11;;;;;;;5.90;1.45;;;14.80;99.90;;;;;;4878286;29;20189;-82
2023/07/05 08:29:37;;;;;;;2.45;1.20;;;14.70;99.90;;;;;;4884384;29;20277;-80
2023/07/05 08:32:03;;;;;;;4.90;1.50;;;14.60;99.90;;;;;;4860888;29;20230;-80
2023/07/05 08:34:30;;;;;;;1.52;1.20;;;14.50;99.90;;;;;;4864367;29;20666;-84
2023/07/05 08:36:56;;;;;;;3.97;1.40;;;14.40;99.90;;;;;;4868770;29;20643;-79
2023/07/05 08:39:22;;;;;;;5.88;1.27;;;14.30;99.90;;;;;;4871870;29;20185;-80
2023/07/05 08:41:56;;;;;;;6.07;1.23;;;14.20;99.90;;;;;;4879465;29;20577;-81
2023/07/05 08:44:25;;;;;;;3.00;0.88;;;14.10;99.90;;;;;;4867599;29;21788;-80
2023/07/05 08:47:15;;;;;;;2.80;1.10;;;14.00;99.90;;;;;;4866776;29;20233;-84
2023/07/05 08:50:10;;;;;;;3.42;1.00;;;13.90;99.90;;;;;;4869305;29;20208;-82
2023/07/05 08:52:45;;;;;;;3.90;0.77;;;13.80;99.90;;;;;;4871413;29;20207;-81
2023/07/05 08:55:55;;;;;;;1.75;1.08;;;13.70;99.90;;;;;;4878034;29;20677;-78
2023/07/05 08:58:28;;;;;;;3.60;1.13;;;13.70;99.90;;;;;;4883314;29;20201;-81
2023/07/05 09:00:58;;;;;;;3.90;1.20;;;13.70;99.90;;;;;;4860716;29;20197;-79
2023/07/05 09:03:28;;;;;;;2.40;1.05;;;13.60;99.90;;;;;;4865253;29;20192;-81
2023/07/05 09:06:16;;;;;;;2.45;0.93;;;13.60;99.90;;;;;;4869223;29;20194;-82
2023/07/05 09:08:52;;;;;;;2.15;1.02;;;13.50;99.90;;;;;;4882710;29;20182;-80
2023/07/05 09:11:36;;;;;;;3.00;0.93;;;13.50;99.90;;;;;;4855476;29;20228;-81
2023/07/05 09:14:11;;;;;;;2.95;1.10;;;13.50;99.90;;;;;;4879272;29;20657;-81
2023/07/05 09:16:51;;;;;;;6.70;1.10;;;13.40;99.90;;;;;;4876711;29;20223;-80
2023/07/05 09:19:45;;;;;;;3.33;1.20;;;13.40;99.90;;;;;;4864523;29;20177;-80
2023/07/05 09:22:17;;;;;;;6.85;1.33;;;13.40;99.90;;;;;;4872409;29;20216;-80
2023/07/05 09:24:45;;;;;;;3.55;1.67;;;13.40;99.90;;;;;;4876556;29;20205;-80
2023/07/05 09:27:16;;;;;;;6.20;1.60;;;13.40;99.90;;;;;;4871196;29;20515;-80
2023/07/05 09:29:54;;;;;;;6.13;2.10;;;13.40;99.90;;;;;;4881480;29;20196;-83
2023/07/05 09:32:41;;;;;;;9.60;2.10;;;13.40;99.90;;;;;;4872017;29;20241;-81
2023/07/05 09:35:18;;;;;;;6.15;1.73;;;13.40;99.90;;;;;;4870007;29;20181;-78
2023/07/05 09:38:01;;;;;;;10.93;1.80;;;13.50;99.90;;;;;;4875662;29;20181;-79
2023/07/05 09:40:41;;;;;;;12.43;1.92;;;13.60;99.90;;;;;;4878792;29;20200;-79
2023/07/05 09:43:12;;;;;;;7.90;1.40;;;13.70;99.90;;;;;;4853910;29;20196;-80
2023/07/05 09:45:39;;;;;;;4.85;1.30;;;13.80;99.90;;;;;;4863706;29;20246;-83
2023/07/05 09:48:10;;;;;;;4.85;0.90;;;13.80;99.90;;;;;;4889455;29;20248;-81
2023/07/05 09:50:35;;;;;;;3.45;0.80;;;13.90;99.90;;;;;;4867932;29;20569;-79
2023/07/05 09:53:16;;;;;;;5.53;0.60;;;13.90;99.90;;;;;;4868903;29;20665;-79
2023/07/05 09:56:03;;;;;;;5.80;0.90;;;14.00;99.90;;;;;;4877152;29;20636;-83
2023/07/05 09:58:29;;;;;;;5.03;0.90;;;14.10;99.90;;;;;;4867587;29;20200;-79
2023/07/05 10:00:55;;;;;;;9.32;0.60;;;14.20;99.90;;;;;;4882884;29;20281;-79
2023/07/05 10:03:21;;;;;;;7.80;1.00;;;14.20;99.90;;;;;;4872751;29;20565;-80
2023/07/05 10:05:53;;;;;;;6.55;0.90;;;14.20;99.90;;;;;;4863483;29;20627;-82
2023/07/05 10:08:21;;;;;;;5.32;1.20;;;14.20;99.90;;;;;;4879946;29;20317;-81
2023/07/05 10:10:48;;;;;;;4.28;0.70;;;14.30;99.90;;;;;;4877087;29;20224;-81
2023/07/05 10:13:25;;;;;;;3.25;0.98;;;14.30;99.90;;;;;;4868869;29;20711;-84
2023/07/05 10:15:58;;;;;;;1.88;0.70;;;14.30;99.90;;;;;;4875359;29;20191;-82
2023/07/05 10:18:32;;;;;;;3.63;0.60;;;14.40;99.90;;;;;;4894740;29;20198;-81
2023/07/05 10:21:05;;;;;;;4.43;0.77;;;14.40;99.90;;;;;;4874721;29;20224;-81
2023/07/05 10:23:32;;;;;;;6.80;0.70;;;14.50;99.90;;;;;;4874984;29;20185;-80
2023/07/05 10:26:04;;;;;;;5.07;1.00;;;14.60;99.90;;;;;;4863428;29;20182;-82
2023/07/05 10:28:32;;;;;;;2.67;0.80;;;14.60;99.90;;;;;;4871731;29;20193;-82
2023/07/05 10:31:00;;;;;;;1.90;0.63;;;14.80;99.90;;;;;;4873195;29;20213;-81
2023/07/05 10:33:31;;;;;;;2.13;0.82;;;14.90;99.90;;;;;;4873423;29;20560;-83
2023/07/05 10:36:04;;;;;;;4.40;0.70;;;15.00;99.90;;;;;;4872805;29;20230;-81
2023/07/05 10:38:46;;;;;;;4.93;0.80;;;15.10;99.90;;;;;;4872006;29;20220;-81
2023/07/05 10:41:25;;;;;;;2.92;0.77;;;15.10;99.90;;;;;;4881739;29;20260;-81
2023/07/05 10:44:29;;;;;;;6.13;0.90;;;15.10;99.90;;;;;;4869614;29;20194;-81
2023/07/05 10:46:56;;;;;;;3.63;0.85;;;15.10;99.90;;;;;;4840494;29;20233;-81
2023/07/05 10:49:25;;;;;;;2.65;0.85;;;15.20;99.90;;;;;;4875481;29;20258;-80
2023/07/05 10:51:54;;;;;;;7.15;1.00;;;15.20;99.90;;;;;;4876441;29;20241;-81
2023/07/05 10:54:27;;;;;;;2.70;0.77;;;15.20;99.90;;;;;;4878585;29;20189;-80
2023/07/05 10:56:54;;;;;;;8.48;0.70;;;15.30;99.90;;;;;;4862999;29;20190;-82
2023/07/05 10:59:46;;;;;;;2.88;0.88;;;15.30;99.90;;;;;;4862233;29;20711;-81
2023/07/05 11:02:33;;;;;;;6.60;0.60;;;15.40;99.90;;;;;;4875314;29;20197;-82
2023/07/05 11:04:59;;;;;;;5.75;0.80;;;15.40;99.90;;;;;;4879488;29;20177;-80
2023/07/05 11:07:27;;;;;;;3.30;0.88;;;15.60;99.90;;;;;;4863880;29;20193;-80
2023/07/05 11:09:53;;;;;;;3.42;1.33;;;15.70;99.90;;;;;;4876256;29;20189;-81
2023/07/05 11:12:27;;;;;;;5.30;1.45;;;15.70;99.90;;;;;;4860615;29;20229;-81
2023/07/05 11:14:54;;;;;;;3.17;1.00;;;15.90;99.90;;;;;;4874321;29;20268;-82
2023/07/05 11:17:35;;;;;;;2.80;0.93;;;16.00;99.90;;;;;;4875812;29;20189;-80
2023/07/05 11:20:01;;;;;;;6.10;1.10;;;16.20;99.90;;;;;;4878726;29;20201;-80
2023/07/05 11:22:40;;;;;;;2.08;1.30;;;16.30;99.90;;;;;;4878973;29;20181;-81
2023/07/05 11:25:45;;;;;;;3.42;0.98;;;16.50;99.90;;;;;;4867699;29;20217;-83
2023/07/05 11:28:35;;;;;;;3.13;1.10;;;16.70;99.90;;;;;;4869005;29;20228;-82
2023/07/05 11:31:06;;;;;;;3.60;1.20;;;16.80;99.90;;;;;;4872239;29;20674;-82
2023/07/05 11:33:32;;;;;;;2.20;1.10;;;17.00;99.90;;;;;;4877932;29;20245;-81
2023/07/05 11:36:29;;;;;;;4.88;1.10;;;17.00;99.90;;;;;;4873640;29;20185;-88
2023/07/05 11:38:57;;;;;;;4.35;1.20;;;17.10;99.90;;;;;;4893946;29;20185;-81
2023/07/05 11:41:23;;;;;;;4.35;1.23;;;17.10;99.90;;;;;;4880631;29;20189;-82
2023/07/05 11:44:19;;;;;;;4.85;1.20;;;17.20;99.90;;;;;;4891878;29;20243;-86
2023/07/05 11:46:47;;;;;;;5.75;1.10;;;17.20;99.90;;;;;;4874664;29;20205;-81
2023/07/05 11:49:32;;;;;;;5.60;1.25;;;17.30;99.90;;;;;;4879060;29;20178;-81
2023/07/05 11:52:01;;;;;;;7.80;1.40;;;17.30;99.90;;;;;;4880233;29;20212;-81
2023/07/05 11:54:46;;;;;;;6.28;1.50;;;17.40;99.90;;;;;;4879592;29;20173;-81
2023/07/05 11:57:13;;;;;;;7.60;1.42;;;17.40;99.90;;;;;;4885089;29;20260;-85
2023/07/05 12:00:02;;;;;;;7.70;1.70;;;17.30;99.90;;;;;;4875894;29;20185;-83
2023/07/05 12:02:43;;;;;;;7.47;1.60;;;17.30;99.90;;;;;;4882551;29;20240;-84
2023/07/05 12:05:13;;;;;;;7.60;1.35;;;17.40;99.90;;;;;;4880811;29;20203;-83
2023/07/05 12:07:40;;;;;;;5.82;1.45;;;17.40;99.90;;;;;;4845550;29;20262;-82
2023/07/05 12:10:08;;;;;;;11.73;1.80;;;17.40;99.90;;;;;;4867726;29;20177;-82
2023/07/05 12:12:43;;;;;;;7.07;1.50;;;17.40;99.90;;;;;;4880335;29;20241;-81
2023/07/05 12:15:11;;;;;;;13.20;2.13;;;17.40;99.90;;;;;;4878821;29;20701;-81
2023/07/05 12:17:38;;;;;;;10.77;2.22;;;17.40;99.90;;;;;;4879061;29;20185;-80
2023/07/05 12:20:20;;;;;;;14.50;2.75;;;17.40;99.90;;;;;;4877507;29;20200;-83
2023/07/05 12:22:47;;;;;;;9.88;2.30;;;17.30;99.90;;;;;;4888561;29;20196;-80
2023/07/05 12:25:12;;;;;;;13.93;2.63;;;17.10;99.90;;;;;;4879383;29;20236;-81
2023/07/05 12:27:38;;;;;;;9.23;2.47;;;16.90;99.90;;;;;;4870976;29;20281;-82
2023/07/05 12:30:06;;;;;;;8.65;2.20;;;16.70;99.90;;;;;;4860244;29;20194;-81
2023/07/05 12:32:32;;;;;;;4.88;1.60;;;16.50;99.90;;;;;;4869803;29;20317;-81
2023/07/05 12:35:06;;;;;;;4.97;1.90;;;16.40;99.90;;;;;;4878112;29;20288;-85
2023/07/05 12:37:33;;;;;;;6.32;1.90;;;16.20;99.90;;;;;;4891229;29;20329;-81
2023/07/05 12:40:32;;;;;;;5.28;1.55;;;16.10;99.90;;;;;;4880042;29;20215;-80
2023/07/05 12:43:04;;;;;;;8.27;2.20;;;15.90;99.90;;;;;;4873233;29;20672;-83
2023/07/05 12:45:32;;;;;;;10.68;2.22;;;15.70;99.90;;;;;;4869815;29;20662;-80
2023/07/05 12:48:24;;;;;;;7.28;1.90;;;15.60;99.90;;;;;;4859513;29;20730;-80
2023/07/05 12:51:02;;;;;;;9.88;2.40;;;15.50;99.90;;;;;;4875555;29;20213;-81
2023/07/05 12:53:28;;;;;;;8.13;1.73;;;15.40;99.90;;;;;;4870683;29;20189;-82
2023/07/05 12:56:18;;;;;;;6.45;1.85;;;15.40;99.90;;;;;;4879643;29;20196;-79